createdAt,value
2023-03-25T00:06:06.423Z,92.63
2023-03-25T00:48:41.748Z,91.50
2023-03-25T00:53:17.140Z,91.41
2023-03-25T01:11:58.904Z,91.32
2023-03-25T01:21:11.863Z,90.96
2023-03-25T01:26:24.823Z,90.54
2023-03-25T01:53:19.174Z,88.15
2023-03-25T01:57:24.358Z,88.25
2023-03-25T02:01:28.204Z,87.94
2023-03-25T02:05:47.963Z,87.68
2023-03-25T02:09:51.308Z,87.50
2023-03-25T02:13:55.470Z,87.43
2023-03-25T02:18:13.691Z,87.07
2023-03-25T02:22:38.158Z,87.47
2023-03-25T02:27:05.078Z,88.13
2023-03-25T02:31:25.656Z,88.23
2023-03-25T02:35:28.873Z,88.65
2023-03-25T02:39:36.139Z,89.18
2023-03-25T02:44:05.576Z,89.12
2023-03-25T02:48:34.288Z,89.34
2023-03-25T02:52:48.374Z,88.93
2023-03-25T02:56:57.857Z,88.87
2023-03-25T03:01:01.561Z,88.70
2023-03-25T03:05:23.307Z,88.97
2023-03-25T03:09:46.675Z,89.36
2023-03-25T03:14:08.228Z,91.06
2023-03-25T03:18:18.482Z,92.02
2023-03-25T03:22:52.748Z,92.48
2023-03-25T03:27:23.919Z,92.35
2023-03-25T03:31:49.750Z,92.55
2023-03-25T03:36:04.673Z,92.56
2023-03-25T03:40:16.709Z,92.14
2023-03-25T03:44:26.022Z,91.81
2023-03-25T03:48:52.168Z,91.61
2023-03-25T03:53:09.905Z,91.65
2023-03-25T03:57:41.886Z,91.61
2023-03-25T04:01:48.198Z,91.01
2023-03-25T04:05:59.047Z,90.80
2023-03-25T04:10:06.466Z,90.84
2023-03-25T04:14:11.330Z,90.79
2023-03-25T04:18:14.772Z,91.04
2023-03-25T04:22:21.985Z,91.66
2023-03-25T04:26:25.521Z,91.89
2023-03-25T04:30:30.007Z,92.15
2023-03-25T04:34:34.054Z,92.13
2023-03-25T04:38:37.997Z,91.76
2023-03-25T04:42:42.939Z,91.41
2023-03-25T04:51:59.807Z,91.73
2023-03-25T04:56:30.780Z,91.98
2023-03-25T05:01:27.016Z,92.30
2023-03-25T05:05:50.185Z,92.48
2023-03-25T05:10:38.619Z,92.23
2023-03-25T05:33:43.497Z,93.57
2023-03-25T05:56:31.630Z,87.36
2023-03-25T06:10:56.134Z,84.03
2023-03-25T06:20:49.924Z,82.86
2023-03-25T06:44:26.482Z,84.39
2023-03-25T06:48:45.579Z,85.08
2023-03-25T06:52:49.083Z,84.08
2023-03-25T06:56:52.488Z,81.91
2023-03-25T07:00:56.187Z,80.17
2023-03-25T07:05:00.876Z,77.53
2023-03-25T07:09:04.556Z,76.29
2023-03-25T07:13:10.069Z,76.01
2023-03-25T07:17:14.055Z,76.21
2023-03-25T07:21:18.675Z,77.16
2023-03-25T07:25:23.159Z,75.66
2023-03-25T07:29:26.469Z,75.62
2023-03-25T07:33:29.764Z,74.55
2023-03-25T07:37:33.031Z,75.07
2023-03-25T07:41:36.351Z,76.66
2023-03-25T07:45:44.334Z,76.04
2023-03-25T07:49:50.408Z,75.93
2023-03-25T07:53:53.707Z,75.84
2023-03-25T07:57:58.756Z,76.90
2023-03-25T08:02:02.947Z,78.42
2023-03-25T08:06:07.107Z,77.20
2023-03-25T08:10:10.790Z,77.46
2023-03-25T08:14:14.348Z,76.22
2023-03-25T08:18:17.906Z,73.06
2023-03-25T08:22:21.300Z,71.77
2023-03-25T08:26:27.173Z,70.61
2023-03-25T08:30:30.537Z,70.26
2023-03-25T08:34:39.830Z,70.99
2023-03-25T08:38:43.419Z,72.61
2023-03-25T08:42:46.951Z,74.60
2023-03-25T08:46:50.266Z,70.81
2023-03-25T08:50:53.692Z,72.54
2023-03-25T08:54:57.559Z,71.00
2023-03-25T08:59:01.559Z,70.23
2023-03-25T09:03:05.557Z,69.83
2023-03-25T09:07:12.566Z,70.19
2023-03-25T09:11:24.288Z,71.60
2023-03-25T09:15:34.643Z,72.02
2023-03-25T09:19:38.267Z,71.99
2023-03-25T09:23:42.218Z,70.80
2023-03-25T09:27:45.718Z,70.27
2023-03-25T09:31:49.305Z,73.77
2023-03-25T09:35:53.302Z,73.34
2023-03-25T09:39:57.621Z,70.92
2023-03-25T09:44:15.248Z,72.02
2023-03-25T09:48:33.709Z,69.88
2023-03-25T09:52:50.760Z,68.87
2023-03-25T09:56:59.831Z,69.66
2023-03-25T10:01:27.166Z,68.67
2023-03-25T10:05:56.433Z,69.41
2023-03-25T10:10:24.282Z,67.57
2023-03-25T10:14:52.009Z,67.34
2023-03-25T10:19:16.245Z,66.23
2023-03-25T10:23:29.177Z,63.94
2023-03-25T10:27:42.830Z,65.52
2023-03-25T10:31:57.866Z,67.72
2023-03-25T10:36:03.116Z,69.20
2023-03-25T10:40:34.940Z,66.26
2023-03-25T10:44:38.245Z,65.37
2023-03-25T10:48:41.826Z,65.37
2023-03-25T10:52:48.235Z,64.96
2023-03-25T10:56:59.119Z,65.83
2023-03-25T11:01:10.879Z,66.47
2023-03-25T11:05:19.202Z,62.88
2023-03-25T11:09:24.336Z,65.46
2023-03-25T11:13:29.808Z,65.52
2023-03-25T11:17:33.817Z,63.83
2023-03-25T11:21:37.355Z,61.72
2023-03-25T11:25:42.264Z,62.23
2023-03-25T11:29:55.854Z,63.19
2023-03-25T11:34:05.266Z,62.51
2023-03-25T11:38:20.174Z,63.38
2023-03-25T11:42:33.548Z,65.47
2023-03-25T11:46:43.638Z,71.42
2023-03-25T11:50:53.083Z,81.09
2023-03-25T11:54:57.443Z,89.09
2023-03-25T11:59:02.508Z,91.08
2023-03-25T12:03:12.281Z,95.55
2023-03-25T12:07:19.451Z,91.02
2023-03-25T12:11:42.902Z,94.05
2023-03-25T12:16:21.203Z,89.83
2023-03-25T12:20:41.624Z,88.63
2023-03-25T12:25:04.088Z,87.25
2023-03-25T12:29:56.005Z,86.87
2023-03-25T12:34:17.444Z,87.02
2023-03-25T12:38:32.980Z,85.71
2023-03-25T12:42:57.308Z,83.56
2023-03-25T12:47:21.053Z,85.98
2023-03-25T12:51:39.564Z,83.03
2023-03-25T12:55:52.992Z,81.45
2023-03-25T13:00:20.715Z,81.40
2023-03-25T13:04:36.722Z,79.11
2023-03-25T13:08:56.715Z,79.72
2023-03-25T13:13:03.730Z,79.22
2023-03-25T13:17:15.799Z,80.60
2023-03-25T13:21:22.896Z,77.91
2023-03-25T13:25:49.760Z,78.59
2023-03-25T13:29:54.998Z,78.21
2023-03-25T13:34:35.598Z,75.02
2023-03-25T13:38:47.591Z,73.90
2023-03-25T13:43:06.696Z,72.54
2023-03-25T13:47:19.736Z,71.12
2023-03-25T13:51:24.936Z,67.68
2023-03-25T13:55:43.981Z,68.39
2023-03-25T14:00:10.163Z,67.37
2023-03-25T14:04:28.955Z,69.55
2023-03-25T14:08:58.314Z,72.88
2023-03-25T14:13:10.162Z,84.21
2023-03-25T14:17:17.013Z,89.31
2023-03-25T14:21:48.080Z,92.12
2023-03-25T14:26:00.533Z,92.53
2023-03-25T14:30:20.696Z,91.94
2023-03-25T14:34:26.186Z,93.51
2023-03-25T14:38:56.744Z,93.92
2023-03-25T14:43:03.449Z,87.78
2023-03-25T14:47:17.317Z,87.89
2023-03-25T14:51:26.886Z,87.49
2023-03-25T15:00:09.811Z,89.02
2023-03-25T15:14:01.406Z,88.23
2023-03-25T15:18:05.266Z,87.04
2023-03-25T15:22:21.372Z,84.66
2023-03-25T15:26:30.621Z,84.56
2023-03-25T15:30:49.449Z,83.93
2023-03-25T15:34:54.393Z,81.62
2023-03-25T15:39:13.102Z,83.13
2023-03-25T15:43:59.576Z,81.43
2023-03-25T15:57:38.624Z,81.41
2023-03-25T16:01:46.530Z,82.80
2023-03-25T16:06:01.850Z,83.70
2023-03-25T16:32:47.773Z,91.05
2023-03-25T16:51:20.742Z,90.09
2023-03-25T17:06:40.021Z,89.87
2023-03-25T17:21:02.425Z,91.90
2023-03-25T17:34:45.510Z,96.76
2023-03-25T17:53:25.668Z,99.05
2023-03-25T18:08:02.806Z,95.93
2023-03-25T18:49:53.022Z,94.01
2023-03-25T18:54:20.037Z,94.33
2023-03-25T18:59:06.866Z,94.52
2023-03-25T19:03:14.456Z,94.60
2023-03-25T19:11:52.264Z,94.03
2023-03-25T19:16:19.655Z,94.00
2023-03-25T19:20:44.966Z,94.21
2023-03-25T19:25:03.101Z,94.14
2023-03-25T19:29:10.651Z,94.39
2023-03-25T19:37:58.260Z,95.02
2023-03-25T19:42:15.412Z,95.14
2023-03-25T19:55:25.562Z,93.77
2023-03-25T20:05:41.212Z,91.60
2023-03-25T20:10:29.296Z,90.35
2023-03-25T20:15:20.902Z,89.66
2023-03-25T20:20:15.851Z,88.83
2023-03-25T20:25:13.400Z,88.81
2023-03-25T20:38:57.770Z,86.88
2023-03-25T20:43:54.602Z,86.32
2023-03-25T20:53:19.476Z,85.51
2023-03-25T20:57:40.700Z,84.82
2023-03-25T21:03:00.419Z,84.81
2023-03-25T21:07:58.401Z,84.78
2023-03-25T21:12:54.679Z,85.68
2023-03-25T21:17:33.238Z,85.72
2023-03-25T21:22:43.855Z,85.57
2023-03-25T21:27:08.814Z,84.37
2023-03-25T21:32:04.767Z,84.23
2023-03-25T21:36:50.766Z,84.36
2023-03-25T21:41:23.768Z,84.21
2023-03-25T21:46:08.193Z,83.49
2023-03-25T21:50:45.769Z,82.77
2023-03-25T21:55:14.533Z,82.15
2023-03-25T22:23:45.524Z,79.81
2023-03-25T22:28:22.995Z,79.75
2023-03-25T22:32:55.047Z,80.39
2023-03-25T22:42:15.080Z,80.27
2023-03-25T22:47:18.076Z,81.15
2023-03-25T22:52:22.787Z,81.08
2023-03-25T22:57:21.562Z,81.54
2023-03-25T23:02:01.991Z,81.66
2023-03-25T23:16:44.816Z,82.48
2023-03-25T23:25:49.283Z,82.31
2023-03-25T23:30:32.978Z,82.06
2023-03-25T23:35:19.357Z,81.63
2023-03-25T23:39:40.663Z,82.12
2023-03-25T23:44:54.394Z,82.22
